Relevés horaires Koksijde (Belgique)


Relevés horaires à Koksijde - Dimanche 16 Févr. 2014
Heure UTC1 Température [°C] Vent [km/h] Hum. [%] Pres.4 [hPa] Visi. [Km] Nébu. [octa] Préc.5 [mm] Cond.
2m. Res. Ros. Dir.2 Vit. Moy. Raf.3
23:00 3.9 3.9 2.7 NNO 3.7 3.7 5.6 92 1009.5(-0.5/3h) 13 6/8 -- --
22:00 4.5 4.5 3.2 SSE 3.7 5.6 7.4 91 1009.7(-0.2/3h) 13 6/8 -- --
21:00 5.3 5.3 3.6 S 3.7 5.6 7.4 89 1010(0.2/3h) 25 1/8 -- --
20:00 4.8 3.6 3.3 S 5.6 5.6 7.4 90 1010(0.4/3h) 25 1/8 -- --
19:00 5.0 3.9 3.4 S 5.6 5.6 7.4 89 1010(0.3/3h) 25 2/8 -- --
18:00 5.8 4.8 3.6 S 5.6 13.0 18.5 86 1009.7(0.0/3h) 25 2/8 0/0h
--
17:00 7.0 5.6 3.6 SSO 7.4 9.3 13.0 79 1009.7(-0.2/3h) 25 3/8 -- --
16:00 8.1 6.9 3.7 SO 7.4 11.1 14.8 74 1009.7(-0.3/3h) 25 4/8 -- --
15:00 9.3 7.9 1.6 OSO 9.3 13.0 18.5 59 1009.7(-0.4/3h) 25 2/8 -- --
14:00 9.6 8 -0.3 O 11.1 13.0 18.5 50 1009.9(-0.3/3h) 25 2/8 -- --
13:00 9.6 8 0.2 OSO 11.1 13.0 18.5 52 1010(0.3/3h) 25 3/8 -- --
12:00 9.1 7.4 1.9 OSO 11.1 13.0 16.7 61 1010.2(1.2/3h) 25 4/8 0/0h
--
11:00 8.3 6.4 4.7 SSO 11.1 13.0 16.7 78 1010.2(1.7/3h) 16 4/8 -- --
10:00 7.0 5.2 4.4 SO 9.3 9.3 13.0 83 1009.7(2.0/3h) 16 2/8 -- --
09:00 4.8 3.1 3.3 SO 7.4 7.4 9.3 90 1009(2.0/3h) 13 2/8 -- --
08:00 2.7 1.2 1.8 SO 5.6 5.6 7.4 94 1008.4(2.0/3h) 13 3/8 -- --
07:00 2.5 2.5 1.6 SO 3.7 7.4 9.3 94 1007.5(1.8/3h) 15 3/8 -- --
06:00 2.9 0.8 1.9 SO 7.4 9.3 13.0 93 1006.9(1.7/3h) 15 5/8 0.7/12h
--
05:00 3.2 1.2 2.2 SO 7.4 7.4 11.1 93 1006.2(1.7/3h) 16 5/8 -- --
04:00 3.9 2 2.8 SO 7.4 7.4 9.3 93 1005.5(1.6/3h) 15 5/8 -- --
03:00 4.0 2.1 2.9 SO 7.4 9.3 13.0 93 1005(1.8/3h) 17 4/8 -- --
02:00 4.8 3.1 3.3 SO 7.4 9.3 13.0 90 1004.5(2.2/3h) 15 3/8 -- --
01:00 4.8 3.1 3.5 OSO 7.4 9.3 11.1 91 1003.9(2.5/3h) 16 2/8 -- --
00:00 5.3 3.6 4.2 SO 7.4 18.5 25.9 93 1003(2.5/3h) 14 3/8 0.7/6h
Nuages se dissipant

1 Coordinated Universal Time. Actuellement il est 03:00 locale et 01:00 UTC.

2 Le vent souffle depuis la direction indiquée vers la direction oposée.

3 Les rafales max. sont disponible 40 min après l'heure du relevé.

4 Pour les stations d'altitude (plus de 600m) le géopotentiel du niveau le plus proche de la pression obligatoire est indiqué.

5 Les stations disposant d'un diffuseur peuvent indiquer "trace". Cela signifie que des précipitations ont touchés le sol mais que la quantité est inférieure à 0.1 mm.

Récapitulatif de la journée
Température [°C] Vent [km/h] Ensoleillement4 [h] Precipitations totale5 [mm] Pression [Hpa]
Min1 Max.2 Moy.3 Max. Min Max.
2.9 10.1 9.4 25.9 0 h 0 min 0 1003.0 1010.2

1 Température minimale relevée entre 18:00 UTC la veille et 18:00 UTC le jour donné.

2 Température maximale relevée entre 06:00 UTC le jour donné et 06:00 UTC le lendemain.

3 Vent moyen de la journée basé sur les relevés horaires.

4 Ensoleillement en heures relevé entre 06:00 UTC la veille et 06:00 UTC le jour donné.

5 Précipitations totales tombées entre 06:00 UTC la jour donné et 06:00 UTC le lendemain.

Graphiques horaires